Time;durP1;ratioP1;P1;durP2;ratioP2;P2;SDS_P1;SDS_P2;PMS_P1;PMS_P2;Temp;Humidity;BMP_temperature;BMP_pressure;BME280_temperature;BME280_humidity;BME280_pressure;Samples;Min_cycle;Max_cycle;Signal;HPM_P1;HPM_P2
2023/09/21 00:00:09;;;;;;;4.40;1.90;;;;;;;-128.00;-1.00;-1.00;19027;324;7504538;-31
2023/09/21 00:02:35;;;;;;;4.30;2.90;;;;;;;-128.00;-1.00;-1.00;19033;318;7504958;-31
2023/09/21 00:05:02;;;;;;;1.90;1.60;;;;;;;-128.00;-1.00;-1.00;19443;320;7505061;-31
2023/09/21 00:07:28;;;;;;;10.20;2.30;;;;;;;-128.00;-1.00;-1.00;19017;318;7504953;-34
2023/09/21 00:09:54;;;;;;;2.80;1.90;;;;;;;-128.00;-1.00;-1.00;19009;318;7506493;-34
2023/09/21 00:12:19;;;;;;;2.20;1.70;;;;;;;-128.00;-1.00;-1.00;19024;323;7505093;-31
2023/09/21 00:14:46;;;;;;;5.40;1.90;;;;;;;-128.00;-1.00;-1.00;19459;318;7504865;-31
2023/09/21 00:17:12;;;;;;;3.30;2.10;;;;;;;-128.00;-1.00;-1.00;19001;321;7504537;-34
2023/09/21 00:19:38;;;;;;;2.00;1.50;;;;;;;-128.00;-1.00;-1.00;18987;323;7506335;-34
2023/09/21 00:22:04;;;;;;;3.60;1.60;;;;;;;-128.00;-1.00;-1.00;19025;318;7505621;-35
2023/09/21 00:24:30;;;;;;;4.40;2.80;;;;;;;-128.00;-1.00;-1.00;19041;318;7504625;-34
2023/09/21 00:26:59;;;;;;;4.50;2.80;;;;;;;-128.00;-1.00;-1.00;19464;317;7504711;-34
2023/09/21 00:29:24;;;;;;;3.80;2.30;;;;;;;-128.00;-1.00;-1.00;19029;322;7504830;-30
2023/09/21 00:31:50;;;;;;;3.70;2.40;;;;;;;-128.00;-1.00;-1.00;19018;322;7504577;-30
2023/09/21 00:34:16;;;;;;;8.10;2.80;;;;;;;-128.00;-1.00;-1.00;19421;318;7505043;-34
2023/09/21 00:36:44;;;;;;;9.80;3.70;;;;;;;-128.00;-1.00;-1.00;19455;318;7505088;-34
2023/09/21 01:19:15;;;;;;;2.40;1.50;;;;;;;-99.66;18.72;19783.47;101563;315;1575640;-32
2023/09/21 01:21:43;;;;;;;6.20;3.00;;;;;;;-128.00;-1.00;-1.00;80437;316;4503421;-35
2023/09/21 01:24:13;;;;;;;2.60;2.00;;;;;;;-128.00;-1.00;-1.00;19381;316;7504477;-33
2023/09/21 01:26:38;;;;;;;3.50;2.70;;;;;;;-128.00;-1.00;-1.00;19076;316;7505468;-31
2023/09/21 01:29:05;;;;;;;5.20;2.70;;;;;;;-128.00;-1.00;-1.00;19542;318;7504600;-35
2023/09/21 01:31:31;;;;;;;4.50;2.30;;;;;;;-128.00;-1.00;-1.00;19503;315;7505503;-35
2023/09/21 01:33:59;;;;;;;9.60;2.10;;;;;;;-128.00;-1.00;-1.00;19517;315;7504829;-30
2023/09/21 01:36:24;;;;;;;8.50;3.00;;;;;;;-128.00;-1.00;-1.00;19100;318;7504864;-30
2023/09/21 01:38:52;;;;;;;4.00;2.60;;;;;;;-128.00;-1.00;-1.00;19513;315;7505092;-37
2023/09/21 01:41:21;;;;;;;2.70;2.40;;;;;;;-128.00;-1.00;-1.00;19056;320;7505056;-34
2023/09/21 01:43:47;;;;;;;4.30;2.40;;;;;;;-128.00;-1.00;-1.00;19097;315;7504507;-30
2023/09/21 01:46:18;;;;;;;3.10;1.80;;;;;;;-128.00;-1.00;-1.00;19086;315;7505539;-35
2023/09/21 01:48:44;;;;;;;3.60;1.60;;;;;;;-128.00;-1.00;-1.00;19122;318;7505313;-35
2023/09/21 01:51:12;;;;;;;2.80;2.10;;;;;;;-128.00;-1.00;-1.00;19094;315;7505261;-34
2023/09/21 01:53:37;;;;;;;3.00;1.50;;;;;;;-128.00;-1.00;-1.00;19080;315;7505147;-34
2023/09/21 01:56:03;;;;;;;1.80;1.50;;;;;;;-128.00;-1.00;-1.00;19106;318;7504525;-35
2023/09/21 01:58:29;;;;;;;2.80;2.40;;;;;;;-128.00;-1.00;-1.00;19103;315;7505168;-35
2023/09/21 02:00:55;;;;;;;6.60;2.00;;;;;;;-128.00;-1.00;-1.00;19064;321;7504835;-35
2023/09/21 02:03:27;;;;;;;8.20;2.10;;;;;;;-128.00;-1.00;-1.00;19510;320;7504868;-32
2023/09/21 02:05:53;;;;;;;1.50;1.10;;;;;;;-128.00;-1.00;-1.00;19101;319;7504378;-35
2023/09/21 02:08:19;;;;;;;4.90;2.60;;;;;;;-128.00;-1.00;-1.00;19103;315;7504902;-32
2023/09/21 02:10:44;;;;;;;4.10;2.20;;;;;;;-128.00;-1.00;-1.00;19099;315;7504345;-34
2023/09/21 02:13:10;;;;;;;4.00;1.80;;;;;;;-128.00;-1.00;-1.00;19095;315;7504912;-31
2023/09/21 02:15:40;;;;;;;6.00;2.60;;;;;;;-128.00;-1.00;-1.00;19109;319;7505942;-34
2023/09/21 02:18:07;;;;;;;1.70;1.60;;;;;;;-128.00;-1.00;-1.00;19066;319;7504767;-34
2023/09/21 02:20:35;;;;;;;7.10;2.10;;;;;;;-128.00;-1.00;-1.00;19093;315;7504428;-34
2023/09/21 02:23:02;;;;;;;4.40;3.40;;;;;;;-128.00;-1.00;-1.00;19107;315;7504444;-31
2023/09/21 02:25:34;;;;;;;4.80;2.70;;;;;;;-128.00;-1.00;-1.00;19096;319;7505374;-34
2023/09/21 02:28:04;;;;;;;3.10;1.50;;;;;;;-128.00;-1.00;-1.00;19102;315;7504930;-31
2023/09/21 02:30:32;;;;;;;15.60;2.70;;;;;;;-128.00;-1.00;-1.00;19099;319;7507142;-30
2023/09/21 02:32:57;;;;;;;4.60;2.10;;;;;;;-128.00;-1.00;-1.00;19061;316;7504763;-37
2023/09/21 02:35:26;;;;;;;3.80;2.40;;;;;;;-128.00;-1.00;-1.00;19110;315;7504516;-29
2023/09/21 02:37:56;;;;;;;7.60;2.90;;;;;;;-128.00;-1.00;-1.00;19073;316;7504572;-31
2023/09/21 02:40:22;;;;;;;2.80;1.60;;;;;;;-128.00;-1.00;-1.00;19102;315;7504804;-35
2023/09/21 02:42:53;;;;;;;4.50;2.30;;;;;;;-128.00;-1.00;-1.00;19050;316;7504696;-35
2023/09/21 02:45:21;;;;;;;4.20;1.60;;;;;;;-128.00;-1.00;-1.00;19088;319;7505861;-35
2023/09/21 02:47:47;;;;;;;3.70;2.50;;;;;;;-128.00;-1.00;-1.00;19090;316;7505089;-31
2023/09/21 02:50:14;;;;;;;3.10;2.20;;;;;;;-128.00;-1.00;-1.00;19097;320;7506339;-35
2023/09/21 02:52:56;;;;;;;7.40;1.80;;;;;;;-128.00;-1.00;-1.00;19077;320;7505259;-35
2023/09/21 02:55:23;;;;;;;2.50;1.20;;;;;;;-128.00;-1.00;-1.00;19084;319;7505158;-35
2023/09/21 02:57:55;;;;;;;6.90;2.60;;;;;;;-128.00;-1.00;-1.00;19107;315;7504676;-35
2023/09/21 03:00:22;;;;;;;3.50;2.10;;;;;;;-128.00;-1.00;-1.00;19109;314;7506454;-30
2023/09/21 03:02:49;;;;;;;3.40;2.30;;;;;;;-128.00;-1.00;-1.00;19076;315;7505184;-30
2023/09/21 03:05:16;;;;;;;7.80;2.70;;;;;;;-128.00;-1.00;-1.00;19088;320;7506361;-31
2023/09/21 03:07:43;;;;;;;6.30;2.30;;;;;;;-128.00;-1.00;-1.00;19107;319;7504764;-30
2023/09/21 03:10:10;;;;;;;3.20;2.40;;;;;;;-128.00;-1.00;-1.00;19092;315;7505383;-30
2023/09/21 03:12:39;;;;;;;4.60;1.20;;;;;;;-128.00;-1.00;-1.00;19080;319;7506262;-34
2023/09/21 03:17:44;;;;;;;4.60;2.50;;;;;;;-128.00;-1.00;-1.00;19105;319;7505343;-34
2023/09/21 03:20:11;;;;;;;3.90;2.40;;;;;;;-128.00;-1.00;-1.00;19061;319;7505471;-32
2023/09/21 03:22:38;;;;;;;4.10;2.90;;;;;;;-128.00;-1.00;-1.00;19109;315;7505555;-31
2023/09/21 03:25:11;;;;;;;2.00;1.60;;;;;;;-128.00;-1.00;-1.00;19110;319;7505129;-35
2023/09/21 03:27:40;;;;;;;3.30;2.10;;;;;;;-128.00;-1.00;-1.00;19098;319;7504385;-35
2023/09/21 03:30:10;;;;;;;4.10;2.00;;;;;;;-128.00;-1.00;-1.00;19096;320;7504534;-31
2023/09/21 03:32:39;;;;;;;9.20;2.90;;;;;;;-128.00;-1.00;-1.00;19041;319;7506272;-31
2023/09/21 03:35:06;;;;;;;4.10;1.90;;;;;;;-128.00;-1.00;-1.00;19099;319;7506350;-31
2023/09/21 03:37:32;;;;;;;4.40;2.60;;;;;;;-128.00;-1.00;-1.00;19108;315;7504518;-32
2023/09/21 03:39:58;;;;;;;8.40;2.40;;;;;;;-128.00;-1.00;-1.00;19092;314;7505728;-30
2023/09/21 03:42:24;;;;;;;4.30;2.50;;;;;;;-128.00;-1.00;-1.00;19104;315;7504786;-33
2023/09/21 03:44:50;;;;;;;4.00;2.40;;;;;;;-128.00;-1.00;-1.00;19101;320;7504695;-34
2023/09/21 03:47:17;;;;;;;3.40;1.70;;;;;;;-128.00;-1.00;-1.00;19081;315;7506249;-34
2023/09/21 03:49:46;;;;;;;2.50;1.80;;;;;;;-128.00;-1.00;-1.00;19111;315;7504737;-33
2023/09/21 03:52:15;;;;;;;3.20;2.00;;;;;;;-128.00;-1.00;-1.00;19069;315;7505196;-34
2023/09/21 03:54:42;;;;;;;3.50;2.40;;;;;;;-128.00;-1.00;-1.00;19105;315;7504334;-34
2023/09/21 03:57:11;;;;;;;4.30;2.20;;;;;;;-128.00;-1.00;-1.00;19072;320;7504421;-31
2023/09/21 03:59:37;;;;;;;2.80;1.70;;;;;;;-128.00;-1.00;-1.00;19118;315;7505022;-31
2023/09/21 04:02:03;;;;;;;4.50;2.70;;;;;;;-128.00;-1.00;-1.00;19109;315;7504822;-35
2023/09/21 04:04:30;;;;;;;8.10;2.50;;;;;;;-128.00;-1.00;-1.00;19093;319;7506493;-31
2023/09/21 04:06:56;;;;;;;4.10;1.90;;;;;;;-128.00;-1.00;-1.00;19075;319;7504903;-31
2023/09/21 04:09:22;;;;;;;4.50;2.40;;;;;;;-128.00;-1.00;-1.00;19053;320;7504968;-32
2023/09/21 04:11:48;;;;;;;6.90;2.30;;;;;;;-128.00;-1.00;-1.00;19066;319;7505022;-31
2023/09/21 04:14:13;;;;;;;5.70;2.20;;;;;;;-128.00;-1.00;-1.00;19091;320;7504471;-35
2023/09/21 04:16:39;;;;;;;3.10;2.30;;;;;;;-128.00;-1.00;-1.00;19089;315;7506511;-30
2023/09/21 04:19:10;;;;;;;4.20;2.00;;;;;;;-128.00;-1.00;-1.00;19511;319;7504897;-34
2023/09/21 04:21:36;;;;;;;23.80;3.10;;;;;;;-128.00;-1.00;-1.00;19091;315;7505151;-30
2023/09/21 04:24:02;;;;;;;5.30;1.90;;;;;;;-128.00;-1.00;-1.00;19106;315;7506252;-35
2023/09/21 04:26:29;;;;;;;3.70;2.50;;;;;;;-128.00;-1.00;-1.00;19097;315;7506153;-31
2023/09/21 04:28:55;;;;;;;6.50;2.70;;;;;;;-128.00;-1.00;-1.00;19068;317;7506569;-31
2023/09/21 04:31:21;;;;;;;2.60;1.80;;;;;;;-128.00;-1.00;-1.00;19062;315;7505213;-31
2023/09/21 04:33:47;;;;;;;6.30;2.50;;;;;;;-128.00;-1.00;-1.00;19100;315;7505123;-31
2023/09/21 04:36:13;;;;;;;7.90;2.40;;;;;;;-128.00;-1.00;-1.00;19102;315;7504677;-31
2023/09/21 04:38:39;;;;;;;3.50;2.10;;;;;;;-128.00;-1.00;-1.00;19118;315;7504698;-31
2023/09/21 04:41:05;;;;;;;4.40;2.60;;;;;;;-128.00;-1.00;-1.00;19087;315;7506134;-31
2023/09/21 04:43:32;;;;;;;2.90;1.40;;;;;;;-128.00;-1.00;-1.00;19088;320;7505097;-35
2023/09/21 04:46:01;;;;;;;11.10;2.60;;;;;;;-128.00;-1.00;-1.00;19083;314;7506153;-35
2023/09/21 04:48:28;;;;;;;4.80;3.80;;;;;;;-128.00;-1.00;-1.00;19070;315;7505265;-31
2023/09/21 04:50:54;;;;;;;4.50;2.50;;;;;;;-128.00;-1.00;-1.00;19524;315;7504536;-35
2023/09/21 04:53:20;;;;;;;7.40;2.90;;;;;;;-128.00;-1.00;-1.00;19530;315;7504822;-32
2023/09/21 04:55:46;;;;;;;5.50;2.00;;;;;;;-128.00;-1.00;-1.00;19101;320;7505220;-35
2023/09/21 04:58:13;;;;;;;3.40;2.10;;;;;;;-128.00;-1.00;-1.00;19472;321;7504611;-31
2023/09/21 05:00:39;;;;;;;2.70;2.10;;;;;;;-128.00;-1.00;-1.00;19125;315;7504551;-32
2023/09/21 05:03:06;;;;;;;3.50;1.80;;;;;;;-128.00;-1.00;-1.00;19084;315;7505674;-34
2023/09/21 05:05:31;;;;;;;4.40;2.80;;;;;;;-128.00;-1.00;-1.00;19100;315;7504354;-29
2023/09/21 05:07:58;;;;;;;2.90;1.80;;;;;;;-128.00;-1.00;-1.00;19097;315;7506229;-34
2023/09/21 05:10:23;;;;;;;5.40;3.00;;;;;;;-128.00;-1.00;-1.00;19060;320;7504931;-29
2023/09/21 05:12:51;;;;;;;5.00;2.50;;;;;;;-128.00;-1.00;-1.00;19064;319;7505017;-34
2023/09/21 05:15:17;;;;;;;4.20;1.90;;;;;;;-128.00;-1.00;-1.00;19085;317;7505130;-34
2023/09/21 05:17:43;;;;;;;4.50;2.60;;;;;;;-128.00;-1.00;-1.00;19078;320;7504689;-34
2023/09/21 05:20:09;;;;;;;3.60;2.10;;;;;;;-128.00;-1.00;-1.00;19496;317;7505170;-37
2023/09/21 05:22:39;;;;;;;3.00;2.10;;;;;;;-128.00;-1.00;-1.00;19507;315;7504391;-31
2023/09/21 05:25:05;;;;;;;2.40;1.50;;;;;;;-128.00;-1.00;-1.00;19114;315;7504499;-35
2023/09/21 05:27:31;;;;;;;6.40;1.80;;;;;;;-128.00;-1.00;-1.00;19101;315;7504955;-35
2023/09/21 05:29:57;;;;;;;4.80;2.10;;;;;;;-128.00;-1.00;-1.00;19073;320;7504903;-36
2023/09/21 05:32:27;;;;;;;6.30;2.50;;;;;;;-128.00;-1.00;-1.00;19096;315;7506307;-31
2023/09/21 05:34:52;;;;;;;11.80;1.70;;;;;;;-128.00;-1.00;-1.00;19039;316;7504825;-35
2023/09/21 05:37:19;;;;;;;5.20;2.10;;;;;;;-128.00;-1.00;-1.00;19490;316;7505364;-35
2023/09/21 05:39:46;;;;;;;3.40;1.30;;;;;;;-128.00;-1.00;-1.00;19088;320;7505066;-35
2023/09/21 05:42:12;;;;;;;2.60;2.00;;;;;;;-128.00;-1.00;-1.00;19088;315;7505444;-35
2023/09/21 05:44:38;;;;;;;5.20;1.90;;;;;;;-128.00;-1.00;-1.00;19102;320;7505114;-35
2023/09/21 05:47:04;;;;;;;3.00;1.80;;;;;;;-128.00;-1.00;-1.00;19094;320;7505201;-35
2023/09/21 05:49:32;;;;;;;3.20;2.20;;;;;;;-128.00;-1.00;-1.00;19096;315;7505055;-34
2023/09/21 05:51:59;;;;;;;5.70;1.40;;;;;;;-128.00;-1.00;-1.00;19096;315;7504603;-34
2023/09/21 05:54:26;;;;;;;3.70;1.90;;;;;;;-128.00;-1.00;-1.00;19085;315;7504779;-36
2023/09/21 05:56:55;;;;;;;3.60;2.50;;;;;;;-128.00;-1.00;-1.00;19096;319;7505087;-31
2023/09/21 05:59:22;;;;;;;2.40;1.50;;;;;;;-128.00;-1.00;-1.00;19090;319;7507039;-35
2023/09/21 06:01:48;;;;;;;4.80;2.50;;;;;;;-128.00;-1.00;-1.00;19068;317;7504667;-36
2023/09/21 06:04:17;;;;;;;2.30;1.80;;;;;;;-128.00;-1.00;-1.00;19071;316;7504945;-33
2023/09/21 06:06:44;;;;;;;3.00;1.30;;;;;;;-128.00;-1.00;-1.00;19066;320;7505256;-31
2023/09/21 06:09:12;;;;;;;3.40;1.90;;;;;;;-128.00;-1.00;-1.00;19094;320;7506057;-35
2023/09/21 06:11:38;;;;;;;4.60;2.40;;;;;;;-128.00;-1.00;-1.00;19091;315;7505227;-35
2023/09/21 06:14:04;;;;;;;2.90;1.50;;;;;;;-128.00;-1.00;-1.00;19099;315;7506342;-31
2023/09/21 06:16:32;;;;;;;13.10;1.50;;;;;;;-128.00;-1.00;-1.00;19109;315;7505298;-35
2023/09/21 06:18:58;;;;;;;8.70;1.80;;;;;;;-128.00;-1.00;-1.00;19060;320;7504869;-32
2023/09/21 06:21:24;;;;;;;12.50;1.60;;;;;;;-128.00;-1.00;-1.00;19106;315;7504797;-31
2023/09/21 06:23:50;;;;;;;3.80;1.60;;;;;;;-128.00;-1.00;-1.00;19070;319;7504703;-36
2023/09/21 06:26:16;;;;;;;2.00;1.00;;;;;;;-128.00;-1.00;-1.00;19126;315;7504921;-35
2023/09/21 06:28:47;;;;;;;1.70;1.10;;;;;;;-128.00;-1.00;-1.00;19078;319;7505298;-31
2023/09/21 06:31:13;;;;;;;6.90;1.50;;;;;;;-128.00;-1.00;-1.00;19106;315;7505976;-31
2023/09/21 06:33:40;;;;;;;5.60;1.40;;;;;;;-128.00;-1.00;-1.00;19057;315;7504833;-36
2023/09/21 06:36:08;;;;;;;5.50;1.90;;;;;;;-128.00;-1.00;-1.00;19095;320;7505763;-32
2023/09/21 06:38:33;;;;;;;2.50;1.60;;;;;;;-128.00;-1.00;-1.00;19112;315;7504826;-32
2023/09/21 06:41:01;;;;;;;4.10;1.30;;;;;;;-128.00;-1.00;-1.00;19519;315;7505333;-36
2023/09/21 06:43:30;;;;;;;1.20;1.10;;;;;;;-128.00;-1.00;-1.00;19116;314;7504916;-32
2023/09/21 06:45:56;;;;;;;2.70;1.60;;;;;;;-128.00;-1.00;-1.00;19093;315;7504504;-32
2023/09/21 06:48:21;;;;;;;1.70;1.30;;;;;;;-128.00;-1.00;-1.00;19086;319;7504795;-35
2023/09/21 06:50:47;;;;;;;1.90;1.40;;;;;;;-128.00;-1.00;-1.00;19488;315;7504468;-35
2023/09/21 06:53:14;;;;;;;9.60;1.80;;;;;;;-128.00;-1.00;-1.00;19528;315;7504521;-31
2023/09/21 06:55:40;;;;;;;2.80;1.60;;;;;;;-128.00;-1.00;-1.00;19096;315;7504941;-36
2023/09/21 06:58:08;;;;;;;4.00;1.70;;;;;;;-128.00;-1.00;-1.00;19535;319;7505961;-36
2023/09/21 07:00:37;;;;;;;8.10;1.20;;;;;;;-128.00;-1.00;-1.00;19097;315;7504616;-36
2023/09/21 07:03:03;;;;;;;3.10;1.10;;;;;;;-128.00;-1.00;-1.00;19074;320;7504865;-35
2023/09/21 07:05:29;;;;;;;1.60;0.90;;;;;;;-128.00;-1.00;-1.00;19088;315;7505534;-31
2023/09/21 07:07:55;;;;;;;1.90;1.20;;;;;;;-128.00;-1.00;-1.00;19540;319;7506880;-32
2023/09/21 07:10:22;;;;;;;7.10;1.10;;;;;;;-128.00;-1.00;-1.00;19492;320;7504834;-36
2023/09/21 07:12:48;;;;;;;2.30;1.00;;;;;;;-128.00;-1.00;-1.00;19061;319;7505262;-32
2023/09/21 07:15:13;;;;;;;3.60;0.90;;;;;;;-128.00;-1.00;-1.00;19058;316;7506112;-32
2023/09/21 07:17:39;;;;;;;4.40;1.70;;;;;;;-128.00;-1.00;-1.00;19093;315;7504899;-33
2023/09/21 07:20:06;;;;;;;3.30;1.20;;;;;;;-128.00;-1.00;-1.00;19096;315;7504887;-32
2023/09/21 07:22:33;;;;;;;3.30;1.20;;;;;;;-128.00;-1.00;-1.00;19084;315;7504584;-36
2023/09/21 07:25:03;;;;;;;2.90;1.10;;;;;;;-128.00;-1.00;-1.00;19075;315;7505066;-32
2023/09/21 07:27:29;;;;;;;12.70;1.10;;;;;;;-128.00;-1.00;-1.00;19051;315;7505662;-35
2023/09/21 07:29:57;;;;;;;2.20;1.10;;;;;;;-128.00;-1.00;-1.00;19096;315;7504647;-36
2023/09/21 07:32:25;;;;;;;1.80;0.90;;;;;;;-128.00;-1.00;-1.00;19092;315;7504491;-35
2023/09/21 07:34:51;;;;;;;4.00;2.00;;;;;;;-128.00;-1.00;-1.00;19098;315;7504661;-35
2023/09/21 07:37:17;;;;;;;6.60;1.00;;;;;;;-128.00;-1.00;-1.00;19109;315;7505502;-33
2023/09/21 07:39:43;;;;;;;1.90;1.00;;;;;;;-128.00;-1.00;-1.00;19089;319;7504815;-35
2023/09/21 07:42:09;;;;;;;3.40;0.90;;;;;;;-128.00;-1.00;-1.00;19103;320;7504734;-32
2023/09/21 07:44:35;;;;;;;9.30;1.20;;;;;;;-128.00;-1.00;-1.00;19111;314;7504913;-36
2023/09/21 07:47:00;;;;;;;1.60;0.50;;;;;;;-128.00;-1.00;-1.00;19103;315;7504754;-36
2023/09/21 07:49:26;;;;;;;2.50;0.60;;;;;;;-128.00;-1.00;-1.00;19046;320;7505429;-32
2023/09/21 07:51:55;;;;;;;3.80;1.00;;;;;;;-128.00;-1.00;-1.00;19108;315;7504942;-35
2023/09/21 07:54:22;;;;;;;2.10;0.70;;;;;;;-128.00;-1.00;-1.00;19088;320;7504640;-32
2023/09/21 07:56:48;;;;;;;9.50;1.10;;;;;;;-128.00;-1.00;-1.00;19073;320;7505205;-32
2023/09/21 07:59:15;;;;;;;1.00;0.70;;;;;;;-128.00;-1.00;-1.00;19081;315;7506978;-35
2023/09/21 08:01:41;;;;;;;1.90;0.90;;;;;;;-128.00;-1.00;-1.00;19074;315;7504760;-32
2023/09/21 08:04:07;;;;;;;2.70;0.80;;;;;;;-128.00;-1.00;-1.00;19108;315;7505990;-32
2023/09/21 08:06:33;;;;;;;0.30;0.30;;;;;;;-128.00;-1.00;-1.00;19108;315;7505097;-36
2023/09/21 08:08:59;;;;;;;1.60;1.00;;;;;;;-128.00;-1.00;-1.00;19097;315;7505262;-32
2023/09/21 08:11:25;;;;;;;2.70;1.00;;;;;;;-128.00;-1.00;-1.00;19059;320;7505117;-35
2023/09/21 08:13:51;;;;;;;1.10;0.70;;;;;;;-128.00;-1.00;-1.00;19080;317;7505004;-32
2023/09/21 08:16:17;;;;;;;1.40;0.70;;;;;;;-128.00;-1.00;-1.00;19074;315;7505124;-36
2023/09/21 08:18:43;;;;;;;1.70;0.90;;;;;;;-128.00;-1.00;-1.00;19067;315;7506841;-38
2023/09/21 08:21:14;;;;;;;1.40;0.70;;;;;;;-128.00;-1.00;-1.00;19509;319;7504758;-32
2023/09/21 08:23:42;;;;;;;1.30;1.00;;;;;;;-128.00;-1.00;-1.00;19080;315;7504718;-32
2023/09/21 08:26:08;;;;;;;2.40;0.90;;;;;;;-128.00;-1.00;-1.00;19108;314;7504785;-32
2023/09/21 08:28:34;;;;;;;1.70;0.80;;;;;;;-128.00;-1.00;-1.00;19094;315;7505129;-35
2023/09/21 08:31:00;;;;;;;1.80;1.00;;;;;;;-128.00;-1.00;-1.00;19090;315;7504885;-32
2023/09/21 08:33:25;;;;;;;1.90;1.40;;;;;;;-128.00;-1.00;-1.00;19099;320;7504673;-32
2023/09/21 08:35:51;;;;;;;2.50;0.90;;;;;;;-128.00;-1.00;-1.00;19099;315;7506277;-32
2023/09/21 08:38:17;;;;;;;0.90;0.80;;;;;;;-128.00;-1.00;-1.00;19104;319;7505042;-36
2023/09/21 08:40:46;;;;;;;11.60;1.30;;;;;;;-128.00;-1.00;-1.00;19091;315;7505143;-32
2023/09/21 08:43:24;;;;;;;4.50;1.00;;;;;;;-128.00;-1.00;-1.00;19086;320;7504388;-32
2023/09/21 08:45:50;;;;;;;10.70;0.70;;;;;;;-128.00;-1.00;-1.00;19069;315;7506420;-36
2023/09/21 08:48:19;;;;;;;1.50;0.90;;;;;;;-128.00;-1.00;-1.00;19071;315;7504408;-32
2023/09/21 08:50:44;;;;;;;4.60;1.40;;;;;;;-128.00;-1.00;-1.00;19045;320;7506419;-32
2023/09/21 08:53:13;;;;;;;9.90;1.70;;;;;;;-128.00;-1.00;-1.00;19527;320;7504770;-32
2023/09/21 08:55:40;;;;;;;2.20;1.10;;;;;;;-128.00;-1.00;-1.00;19092;315;7505282;-36
2023/09/21 08:58:06;;;;;;;7.00;1.70;;;;;;;-128.00;-1.00;-1.00;19107;319;7504745;-36
2023/09/21 09:00:32;;;;;;;4.50;1.30;;;;;;;-128.00;-1.00;-1.00;19101;319;7504961;-32
2023/09/21 09:02:58;;;;;;;2.10;1.00;;;;;;;-128.00;-1.00;-1.00;19097;315;7505196;-36
2023/09/21 09:05:23;;;;;;;8.80;1.40;;;;;;;-128.00;-1.00;-1.00;19093;315;7506137;-36
2023/09/21 09:07:49;;;;;;;2.40;1.00;;;;;;;-128.00;-1.00;-1.00;19090;315;7504543;-32
2023/09/21 09:10:15;;;;;;;3.40;0.80;;;;;;;-128.00;-1.00;-1.00;19096;315;7506509;-36
2023/09/21 09:12:41;;;;;;;2.20;1.40;;;;;;;-128.00;-1.00;-1.00;19069;320;7505406;-32
2023/09/21 09:15:08;;;;;;;3.80;1.20;;;;;;;-128.00;-1.00;-1.00;19078;320;7504652;-32
2023/09/21 09:17:35;;;;;;;4.40;1.50;;;;;;;-128.00;-1.00;-1.00;19074;319;7506428;-32
2023/09/21 09:20:02;;;;;;;2.60;1.20;;;;;;;-128.00;-1.00;-1.00;19107;315;7505418;-36
2023/09/21 09:22:31;;;;;;;1.00;0.90;;;;;;;-128.00;-1.00;-1.00;18667;320;7505641;-36
2023/09/21 09:24:58;;;;;;;3.00;1.80;;;;;;;-128.00;-1.00;-1.00;19072;319;7505454;-32
2023/09/21 09:27:25;;;;;;;9.70;1.30;;;;;;;-128.00;-1.00;-1.00;19062;315;7504452;-36
2023/09/21 09:29:51;;;;;;;1.10;1.10;;;;;;;-128.00;-1.00;-1.00;19090;319;7504459;-36
2023/09/21 09:32:22;;;;;;;1.30;1.20;;;;;;;-128.00;-1.00;-1.00;19089;315;7506107;-32
2023/09/21 09:34:48;;;;;;;9.40;1.10;;;;;;;-128.00;-1.00;-1.00;19090;314;7504921;-36
2023/09/21 09:37:15;;;;;;;5.60;1.20;;;;;;;-128.00;-1.00;-1.00;19085;320;7504742;-36
2023/09/21 09:39:44;;;;;;;1.30;1.20;;;;;;;-128.00;-1.00;-1.00;19100;315;7504829;-36
2023/09/21 09:42:11;;;;;;;2.30;0.90;;;;;;;-128.00;-1.00;-1.00;19099;319;7504682;-36
2023/09/21 09:44:44;;;;;;;2.20;1.30;;;;;;;-128.00;-1.00;-1.00;19120;315;7504763;-36
2023/09/21 09:47:11;;;;;;;14.70;1.60;;;;;;;-128.00;-1.00;-1.00;19111;319;7504666;-36
2023/09/21 09:49:40;;;;;;;1.90;1.10;;;;;;;-128.00;-1.00;-1.00;19087;315;7504576;-36
2023/09/21 09:52:09;;;;;;;8.20;1.70;;;;;;;-128.00;-1.00;-1.00;19084;315;7504802;-32
2023/09/21 09:54:34;;;;;;;2.00;1.30;;;;;;;-128.00;-1.00;-1.00;19075;316;7505383;-36
2023/09/21 09:57:01;;;;;;;1.80;1.20;;;;;;;-128.00;-1.00;-1.00;19111;315;7504798;-38
2023/09/21 09:59:28;;;;;;;9.00;1.70;;;;;;;-128.00;-1.00;-1.00;19063;315;7505112;-36
2023/09/21 10:01:55;;;;;;;21.70;1.40;;;;;;;-128.00;-1.00;-1.00;19089;319;7504656;-36
2023/09/21 10:04:21;;;;;;;1.90;1.20;;;;;;;-128.00;-1.00;-1.00;19088;315;7505040;-32
2023/09/21 10:06:47;;;;;;;4.10;1.80;;;;;;;-128.00;-1.00;-1.00;19075;317;7505532;-36
2023/09/21 10:09:14;;;;;;;2.90;1.00;;;;;;;-128.00;-1.00;-1.00;19085;316;7504764;-35
2023/09/21 10:11:46;;;;;;;2.90;1.80;;;;;;;-128.00;-1.00;-1.00;19118;315;7504675;-32
2023/09/21 10:14:13;;;;;;;1.90;1.60;;;;;;;-128.00;-1.00;-1.00;19097;315;7505461;-32
2023/09/21 10:16:38;;;;;;;2.10;1.20;;;;;;;-128.00;-1.00;-1.00;19063;316;7504830;-32
2023/09/21 10:19:06;;;;;;;3.40;1.60;;;;;;;-128.00;-1.00;-1.00;19098;319;7504678;-32
2023/09/21 10:21:36;;;;;;;2.30;1.00;;;;;;;-128.00;-1.00;-1.00;19059;315;7504604;-32
2023/09/21 10:24:08;;;;;;;15.50;1.50;;;;;;;-128.00;-1.00;-1.00;19073;315;7504651;-36
2023/09/21 10:26:35;;;;;;;11.70;1.30;;;;;;;-128.00;-1.00;-1.00;19117;315;7504857;-32
2023/09/21 10:29:06;;;;;;;2.20;1.30;;;;;;;-128.00;-1.00;-1.00;19047;320;7504585;-32
2023/09/21 10:31:33;;;;;;;1.30;1.10;;;;;;;-128.00;-1.00;-1.00;19094;319;7505096;-32
2023/09/21 10:34:08;;;;;;;7.80;1.40;;;;;;;-128.00;-1.00;-1.00;19071;316;7504864;-36
2023/09/21 10:36:36;;;;;;;2.90;1.70;;;;;;;-128.00;-1.00;-1.00;19102;315;7504736;-36
2023/09/21 10:39:26;;;;;;;2.70;1.30;;;;;;;-128.00;-1.00;-1.00;19102;315;7505009;-33
2023/09/21 10:41:53;;;;;;;2.30;1.30;;;;;;;-128.00;-1.00;-1.00;19048;320;7504550;-37
2023/09/21 10:44:43;;;;;;;4.60;1.10;;;;;;;-128.00;-1.00;-1.00;19065;315;7506882;-36
2023/09/21 10:47:09;;;;;;;2.40;1.00;;;;;;;-128.00;-1.00;-1.00;19086;315;7505112;-36
2023/09/21 10:49:35;;;;;;;3.80;1.40;;;;;;;-128.00;-1.00;-1.00;61464;315;7504642;-32
2023/09/21 10:52:02;;;;;;;7.60;1.60;;;;;;;-128.00;-1.00;-1.00;19526;320;7504975;-37
2023/09/21 10:54:30;;;;;;;11.90;1.10;;;;;;;-128.00;-1.00;-1.00;28905;315;7504788;-32
2023/09/21 10:56:56;;;;;;;17.10;4.70;;;;;;;-128.00;-1.00;-1.00;26213;315;7504430;-32
2023/09/21 10:59:22;;;;;;;1.90;1.30;;;;;;;-128.00;-1.00;-1.00;20821;319;7504621;-32
2023/09/21 11:01:48;;;;;;;4.10;0.90;;;;;;;-128.00;-1.00;-1.00;19515;315;7504426;-32
2023/09/21 11:04:14;;;;;;;3.40;0.90;;;;;;;-128.00;-1.00;-1.00;101262;315;1003089;-31
2023/09/21 11:06:40;;;;;;;8.30;0.90;;;;;;;-128.00;-1.00;-1.00;101183;315;1002941;-35
2023/09/21 11:09:08;;;;;;;1.60;1.10;;;;;;;-128.00;-1.00;-1.00;48061;319;7505634;-32
2023/09/21 11:11:34;;;;;;;1.70;1.20;;;;;;;-128.00;-1.00;-1.00;19111;315;7504783;-32
2023/09/21 11:14:05;;;;;;;4.60;1.10;;;;;;;-128.00;-1.00;-1.00;52424;315;7504496;-33
2023/09/21 11:16:31;;;;;;;1.70;0.80;;;;;;;-128.00;-1.00;-1.00;58645;315;7504407;-32
2023/09/21 11:18:56;;;;;;;2.60;1.00;;;;;;;-128.00;-1.00;-1.00;101196;315;1005008;-31
2023/09/21 11:21:22;;;;;;;3.30;2.00;;;;;;;-128.00;-1.00;-1.00;101225;315;1002943;-31
2023/09/21 11:23:49;;;;;;;1.00;0.70;;;;;;;-128.00;-1.00;-1.00;85955;315;3003080;-32
2023/09/21 11:26:15;;;;;;;2.70;1.60;;;;;;;-128.00;-1.00;-1.00;96842;315;3003213;-31
2023/09/21 11:28:43;;;;;;;6.80;1.90;;;;;;;-128.00;-1.00;-1.00;30159;318;7505747;-32
2023/09/21 11:31:12;;;;;;;3.10;1.60;;;;;;;-128.00;-1.00;-1.00;19495;316;7504649;-32
2023/09/21 11:33:37;;;;;;;3.40;1.50;;;;;;;-128.00;-1.00;-1.00;19340;320;7505005;-36
2023/09/21 11:36:07;;;;;;;3.70;1.70;;;;;;;-128.00;-1.00;-1.00;23835;320;7505259;-36
2023/09/21 11:38:36;;;;;;;2.20;1.10;;;;;;;-128.00;-1.00;-1.00;19504;319;7504762;-36
2023/09/21 11:41:01;;;;;;;1.10;1.00;;;;;;;-128.00;-1.00;-1.00;60224;315;7504693;-32
2023/09/21 11:43:29;;;;;;;1.90;1.30;;;;;;;-128.00;-1.00;-1.00;79314;315;7505700;-35
2023/09/21 11:45:54;;;;;;;9.10;1.60;;;;;;;-128.00;-1.00;-1.00;100616;317;1045494;-35
2023/09/21 11:48:22;;;;;;;11.40;1.00;;;;;;;-128.00;-1.00;-1.00;51401;316;4503264;-36
2023/09/21 11:50:51;;;;;;;1.60;1.30;;;;;;;-128.00;-1.00;-1.00;57111;315;7504693;-32
2023/09/21 11:53:19;;;;;;;2.80;1.40;;;;;;;-128.00;-1.00;-1.00;56719;315;7504284;-31
2023/09/21 11:55:46;;;;;;;2.60;1.70;;;;;;;-128.00;-1.00;-1.00;100904;315;1003817;-35
2023/09/21 11:58:16;;;;;;;10.10;1.40;;;;;;;-128.00;-1.00;-1.00;65118;315;7504230;-31
2023/09/21 12:03:23;;;;;;;0.60;0.60;;;;;;;-128.00;-1.00;-1.00;19096;320;7505329;-36
2023/09/21 12:05:49;;;;;;;17.70;1.80;;;;;;;-128.00;-1.00;-1.00;19098;319;7504978;-32
2023/09/21 12:08:16;;;;;;;1.60;1.50;;;;;;;-128.00;-1.00;-1.00;19085;315;7505732;-33
2023/09/21 12:10:47;;;;;;;1.90;1.20;;;;;;;-128.00;-1.00;-1.00;19056;315;7506142;-36
2023/09/21 12:13:13;;;;;;;5.80;1.00;;;;;;;-128.00;-1.00;-1.00;19203;320;7504297;-36
2023/09/21 12:15:40;;;;;;;1.90;1.00;;;;;;;-128.00;-1.00;-1.00;19097;320;7504739;-36